Ocean Honey — VRDL3 — position and weather

sailwx.info

Track history (hours):
 
Tides and Currents Weather Stations Pressure Air Temp Water Temp Dewpoint Dewpoint Depression Visibility Wind Speed Wind Dir Waves Ship Positions

Ocean Honey

Last reported at 2014-Jul-24 09:27 UTC. Time now 2014-Jul-24 10:44 UTC.
Position N 37°39' E 120°19'.

Length 167 m; draft 5.9 m.

Type: Cargo ship. MMSI: 477003100.

Date/timePositionNaut miles runAvg speedWind from/ knotsBaromVisibWave heightAir tempDewpointWater temp
2014-Jul-24 09:27N 37°39' E 120°19'0 0.0
2014-Jul-24 08:21N 37°39' E 120°19'0 0.0
2014-Jul-24 07:18N 37°39' E 120°19'0 0.1
2014-Jul-24 06:12N 37°39' E 120°19'0 0.0
2014-Jul-24 05:30N 37°39' E 120°19'0 0.0
2014-Jul-24 04:33N 37°39' E 120°19'0 0.0
2014-Jul-24 03:30N 37°39' E 120°19'0 0.0
2014-Jul-24 02:33N 37°39' E 120°19'0 0.0
2014-Jul-24 00:24N 37°39' E 120°19'0 0.0
2014-Jul-23 23:33N 37°39' E 120°19'0 0.0
2014-Jul-23 20:21N 37°39' E 120°19'0 0.0
2014-Jul-23 17:15N 37°39' E 120°19'0 0.0
2014-Jul-23 16:27N 37°39' E 120°19'0 0.0
2014-Jul-23 15:18N 37°39' E 120°19'0 0.0
2014-Jul-23 13:06N 37°39' E 120°19'0 0.1
2014-Jul-23 12:18N 37°39' E 120°19'0 0.1
2014-Jul-23 11:33N 37°39' E 120°19'53 1.3
2014-Jul-21 17:31N 38°23' E 119°40'5911.8
2014-Jul-21 12:33N 38°49' E 118°33'1211.0
2014-Jul-21 11:27N 38°50' E 118°18'1010.8
2014-Jul-21 10:33N 38°54' E 118°07'4 3.1
2014-Jul-21 09:23N 38°54' E 118°02'0 0.1
2014-Jul-21 08:29N 38°54' E 118°02'0 0.0
2014-Jul-21 07:32N 38°54' E 118°02'0 0.1
2014-Jul-21 06:29N 38°54' E 118°02'0 0.1
2014-Jul-21 05:20N 38°54' E 118°02'0 0.1
2014-Jul-21 04:32N 38°55' E 118°02'0 0.1
2014-Jul-21 03:32N 38°55' E 118°02'0 0.0
2014-Jul-21 02:32N 38°55' E 118°02'0 0.1
2014-Jul-21 01:32N 38°55' E 118°02'0 0.0
2014-Jul-21 00:14N 38°55' E 118°02'0 0.1
2014-Jul-20 23:29N 38°55' E 118°02'0 0.0
2014-Jul-20 22:32N 38°55' E 118°02'0 0.0
2014-Jul-20 21:32N 38°55' E 118°02'0 0.0
2014-Jul-20 20:32N 38°55' E 118°02'0 0.1
2014-Jul-20 19:32N 38°55' E 118°02'0 0.0
2014-Jul-20 18:32N 38°55' E 118°02'0 0.0
2014-Jul-20 17:29N 38°55' E 118°02'0 0.0
2014-Jul-20 16:32N 38°55' E 118°02'0 0.0
2014-Jul-20 15:32N 38°55' E 118°02'0 0.0
2014-Jul-20 14:29N 38°55' E 118°02'0 0.0
2014-Jul-20 13:29N 38°55' E 118°02'0 0.1
2014-Jul-20 12:32N 38°55' E 118°02'0 0.1
2014-Jul-20 11:29N 38°55' E 118°02'0 0.0
2014-Jul-20 10:29N 38°55' E 118°02'0 0.0
2014-Jul-20 09:29N 38°55' E 118°02'0 0.0
2014-Jul-20 08:26N 38°55' E 118°02'0 0.0
2014-Jul-20 07:23N 38°55' E 118°02'0 0.0
2014-Jul-20 06:32N 38°55' E 118°02'0 0.1
2014-Jul-20 05:05N 38°55' E 118°02'0 0.0
2014-Jul-20 04:23N 38°55' E 118°02'0 0.1
2014-Jul-20 03:32N 38°55' E 118°02'0 0.0
2014-Jul-20 02:33N 38°55' E 118°02'0 0.0
2014-Jul-20 01:32N 38°55' E 118°02'0 0.0
2014-Jul-20 00:26N 38°54' E 118°02'0 0.1
2014-Jul-19 23:32N 38°55' E 118°02'0 0.0
2014-Jul-19 22:29N 38°55' E 118°02'0 0.0
2014-Jul-19 21:32N 38°55' E 118°02'0 0.0
2014-Jul-19 20:32N 38°55' E 118°02'0 0.1
2014-Jul-19 19:29N 38°55' E 118°02'0 0.1
2014-Jul-19 18:33N 38°55' E 118°02'0 0.1
2014-Jul-19 17:33N 38°54' E 118°02'6 6.4
2014-Jul-19 16:33N 38°57' E 117°54'7 6.7
2014-Jul-19 15:28N 38°59' E 117°45'0 0.0
2014-Jul-19 14:31N 38°59' E 117°45'0 0.0
2014-Jul-19 13:31N 38°59' E 117°45'0 0.0
2014-Jul-19 12:31N 38°59' E 117°45'0 0.0
2014-Jul-19 11:31N 38°59' E 117°45'0 0.0
2014-Jul-19 10:31N 38°59' E 117°45'0 0.0
2014-Jul-19 09:28N 38°59' E 117°45'0 0.0
2014-Jul-19 08:28N 38°59' E 117°45'0 0.0
2014-Jul-19 07:31N 38°59' E 117°45'0 0.1
2014-Jul-19 06:31N 38°59' E 117°45'0 0.1
2014-Jul-19 05:31N 38°59' E 117°45'0 0.0
2014-Jul-19 04:31N 38°59' E 117°45'0 0.0
2014-Jul-19 03:25N 38°59' E 117°45'0 0.0
2014-Jul-19 02:31N 38°59' E 117°45'0 0.0
2014-Jul-19 01:13N 38°59' E 117°45'0 0.0
2014-Jul-19 00:19N 38°59' E 117°45'0 0.1
2014-Jul-18 23:31N 38°59' E 117°45'0 0.0
2014-Jul-18 22:31N 38°59' E 117°45'0 0.0
2014-Jul-18 21:31N 38°59' E 117°45'0 0.0
2014-Jul-18 20:31N 38°59' E 117°45'0 0.0
2014-Jul-18 19:33N 38°59' E 117°45'0 0.1
2014-Jul-18 18:33N 38°59' E 117°45'0 0.0
2014-Jul-18 17:33N 38°59' E 117°45'0 0.1
2014-Jul-18 16:33N 38°59' E 117°45'0 0.0
2014-Jul-18 15:33N 38°59' E 117°45'0 0.0
2014-Jul-18 14:33N 38°59' E 117°45'0 0.0
2014-Jul-18 13:33N 38°59' E 117°45'0 0.0
2014-Jul-18 12:33N 38°59' E 117°45'0 0.0
2014-Jul-18 11:33N 38°59' E 117°45'0 0.0
2014-Jul-18 10:33N 38°59' E 117°45'0 0.0
2014-Jul-18 09:33N 38°59' E 117°45'0 0.1
2014-Jul-18 08:33N 38°59' E 117°45'0 0.0
2014-Jul-18 07:33N 38°59' E 117°45'0 0.0
2014-Jul-18 06:34N 38°59' E 117°45'0 0.0
2014-Jul-18 05:34N 38°59' E 117°45'0 0.0
2014-Jul-18 04:33N 38°59' E 117°45'0 0.1
2014-Jul-18 03:33N 38°59' E 117°45'7 7.1
2014-Jul-18 02:34N 38°57' E 117°54'8 7.4
2014-Jul-18 01:26N 38°57' E 118°05'0 0.3
2014-Jul-18 00:32N 38°57' E 118°05'0 0.1
2014-Jul-17 23:26N 38°57' E 118°05'0 0.1
2014-Jul-17 22:32N 38°57' E 118°05'0 0.0
2014-Jul-17 21:14N 38°57' E 118°05'0 0.1
2014-Jul-17 20:26N 38°57' E 118°05'0 0.0
2014-Jul-17 19:26N 38°57' E 118°05'0 0.1
2014-Jul-17 18:29N 38°57' E 118°05'0 0.1
2014-Jul-17 16:22N 38°57' E 118°05'0 0.1
2014-Jul-17 15:31N 38°57' E 118°05'0 0.0
2014-Jul-17 14:31N 38°57' E 118°05'0 0.0
2014-Jul-17 13:28N 38°57' E 118°05'0 0.1
2014-Jul-17 12:31N 38°57' E 118°05'0 0.2
2014-Jul-17 11:28N 38°57' E 118°05'0 0.0
2014-Jul-17 10:25N 38°57' E 118°05'0 0.1
2014-Jul-17 09:31N 38°57' E 118°05'0 0.0
2014-Jul-17 08:28N 38°57' E 118°05'0 0.0
2014-Jul-17 07:28N 38°57' E 118°05'0 0.1
2014-Jul-17 06:31N 38°57' E 118°05'0 0.1
2014-Jul-17 05:31N 38°57' E 118°05'0 0.1
2014-Jul-17 02:19N 38°57' E 118°05'0 0.0
2014-Jul-16 21:10N 38°57' E 118°05'0 0.0
2014-Jul-16 19:28N 38°57' E 118°05'0 0.0
2014-Jul-16 17:28N 38°57' E 118°05'0 0.1
2014-Jul-16 16:22N 38°57' E 118°05'0 0.0
2014-Jul-16 14:22N 38°57' E 118°05'0 0.0
2014-Jul-16 13:16N 38°57' E 118°05'0 0.1
2014-Jul-16 12:22N 38°57' E 118°05'0 0.2
2014-Jul-16 11:29N 38°57' E 118°05'1 1.4
2014-Jul-16 10:33N 38°56' E 118°06'15111.4
2014-Jul-15 21:18N 38°27' E 121°16'1011.2
2014-Jul-15 20:23N 38°22' E 121°28'8911.4
2014-Jul-15 12:33N 37°30' E 123°00'1313.5
2014-Jul-15 11:33N 37°18' E 123°07'1313.1
2014-Jul-15 10:33N 37°06' E 123°14'1312.5
2014-Jul-15 09:33N 36°55' E 123°21'  
Track history (hours):
 
Tides and Currents Weather Stations Pressure Air Temp Water Temp Dewpoint Dewpoint Depression Visibility Wind Speed Wind Dir Waves Ship Positions

Ocean Honey

Last reported at 2014-Jul-24 09:27 UTC. Time now 2014-Jul-24 10:44 UTC.
Position N 37°39' E 120°19'.

Length 167 m; draft 5.9 m.

Type: Cargo ship. MMSI: 477003100.

Date/timePositionNaut miles runAvg speedWind from/ knotsBaromVisibWave heightAir tempDewpointWater temp
2014-Jul-24 09:27N 37°39' E 120°19'0 0.0
2014-Jul-24 08:21N 37°39' E 120°19'0 0.0
2014-Jul-24 07:18N 37°39' E 120°19'0 0.1
2014-Jul-24 06:12N 37°39' E 120°19'0 0.0
2014-Jul-24 05:30N 37°39' E 120°19'0 0.0
2014-Jul-24 04:33N 37°39' E 120°19'0 0.0
2014-Jul-24 03:30N 37°39' E 120°19'0 0.0
2014-Jul-24 02:33N 37°39' E 120°19'0 0.0
2014-Jul-24 00:24N 37°39' E 120°19'0 0.0
2014-Jul-23 23:33N 37°39' E 120°19'0 0.0
2014-Jul-23 20:21N 37°39' E 120°19'0 0.0
2014-Jul-23 17:15N 37°39' E 120°19'0 0.0
2014-Jul-23 16:27N 37°39' E 120°19'0 0.0
2014-Jul-23 15:18N 37°39' E 120°19'0 0.0
2014-Jul-23 13:06N 37°39' E 120°19'0 0.1
2014-Jul-23 12:18N 37°39' E 120°19'0 0.1
2014-Jul-23 11:33N 37°39' E 120°19'53 1.3
2014-Jul-21 17:31N 38°23' E 119°40'5911.8
2014-Jul-21 12:33N 38°49' E 118°33'1211.0
2014-Jul-21 11:27N 38°50' E 118°18'1010.8
2014-Jul-21 10:33N 38°54' E 118°07'4 3.1
2014-Jul-21 09:23N 38°54' E 118°02'0 0.1
2014-Jul-21 08:29N 38°54' E 118°02'0 0.0
2014-Jul-21 07:32N 38°54' E 118°02'0 0.1
2014-Jul-21 06:29N 38°54' E 118°02'0 0.1
2014-Jul-21 05:20N 38°54' E 118°02'0 0.1
2014-Jul-21 04:32N 38°55' E 118°02'0 0.1
2014-Jul-21 03:32N 38°55' E 118°02'0 0.0
2014-Jul-21 02:32N 38°55' E 118°02'0 0.1
2014-Jul-21 01:32N 38°55' E 118°02'0 0.0
2014-Jul-21 00:14N 38°55' E 118°02'0 0.1
2014-Jul-20 23:29N 38°55' E 118°02'0 0.0
2014-Jul-20 22:32N 38°55' E 118°02'0 0.0
2014-Jul-20 21:32N 38°55' E 118°02'0 0.0
2014-Jul-20 20:32N 38°55' E 118°02'0 0.1
2014-Jul-20 19:32N 38°55' E 118°02'0 0.0
2014-Jul-20 18:32N 38°55' E 118°02'0 0.0
2014-Jul-20 17:29N 38°55' E 118°02'0 0.0
2014-Jul-20 16:32N 38°55' E 118°02'0 0.0
2014-Jul-20 15:32N 38°55' E 118°02'0 0.0
2014-Jul-20 14:29N 38°55' E 118°02'0 0.0
2014-Jul-20 13:29N 38°55' E 118°02'0 0.1
2014-Jul-20 12:32N 38°55' E 118°02'0 0.1
2014-Jul-20 11:29N 38°55' E 118°02'0 0.0
2014-Jul-20 10:29N 38°55' E 118°02'0 0.0
2014-Jul-20 09:29N 38°55' E 118°02'0 0.0
2014-Jul-20 08:26N 38°55' E 118°02'0 0.0
2014-Jul-20 07:23N 38°55' E 118°02'0 0.0
2014-Jul-20 06:32N 38°55' E 118°02'0 0.1
2014-Jul-20 05:05N 38°55' E 118°02'0 0.0
2014-Jul-20 04:23N 38°55' E 118°02'0 0.1
2014-Jul-20 03:32N 38°55' E 118°02'0 0.0
2014-Jul-20 02:33N 38°55' E 118°02'0 0.0
2014-Jul-20 01:32N 38°55' E 118°02'0 0.0
2014-Jul-20 00:26N 38°54' E 118°02'0 0.1
2014-Jul-19 23:32N 38°55' E 118°02'0 0.0
2014-Jul-19 22:29N 38°55' E 118°02'0 0.0
2014-Jul-19 21:32N 38°55' E 118°02'0 0.0
2014-Jul-19 20:32N 38°55' E 118°02'0 0.1
2014-Jul-19 19:29N 38°55' E 118°02'0 0.1
2014-Jul-19 18:33N 38°55' E 118°02'0 0.1
2014-Jul-19 17:33N 38°54' E 118°02'6 6.4
2014-Jul-19 16:33N 38°57' E 117°54'7 6.7
2014-Jul-19 15:28N 38°59' E 117°45'0 0.0
2014-Jul-19 14:31N 38°59' E 117°45'0 0.0
2014-Jul-19 13:31N 38°59' E 117°45'0 0.0
2014-Jul-19 12:31N 38°59' E 117°45'0 0.0
2014-Jul-19 11:31N 38°59' E 117°45'0 0.0
2014-Jul-19 10:31N 38°59' E 117°45'0 0.0
2014-Jul-19 09:28N 38°59' E 117°45'0 0.0
2014-Jul-19 08:28N 38°59' E 117°45'0 0.0
2014-Jul-19 07:31N 38°59' E 117°45'0 0.1
2014-Jul-19 06:31N 38°59' E 117°45'0 0.1
2014-Jul-19 05:31N 38°59' E 117°45'0 0.0
2014-Jul-19 04:31N 38°59' E 117°45'0 0.0
2014-Jul-19 03:25N 38°59' E 117°45'0 0.0
2014-Jul-19 02:31N 38°59' E 117°45'0 0.0
2014-Jul-19 01:13N 38°59' E 117°45'0 0.0
2014-Jul-19 00:19N 38°59' E 117°45'0 0.1
2014-Jul-18 23:31N 38°59' E 117°45'0 0.0
2014-Jul-18 22:31N 38°59' E 117°45'0 0.0
2014-Jul-18 21:31N 38°59' E 117°45'0 0.0
2014-Jul-18 20:31N 38°59' E 117°45'0 0.0
2014-Jul-18 19:33N 38°59' E 117°45'0 0.1
2014-Jul-18 18:33N 38°59' E 117°45'0 0.0
2014-Jul-18 17:33N 38°59' E 117°45'0 0.1
2014-Jul-18 16:33N 38°59' E 117°45'0 0.0
2014-Jul-18 15:33N 38°59' E 117°45'0 0.0
2014-Jul-18 14:33N 38°59' E 117°45'0 0.0
2014-Jul-18 13:33N 38°59' E 117°45'0 0.0
2014-Jul-18 12:33N 38°59' E 117°45'0 0.0
2014-Jul-18 11:33N 38°59' E 117°45'0 0.0
2014-Jul-18 10:33N 38°59' E 117°45'0 0.0
2014-Jul-18 09:33N 38°59' E 117°45'0 0.1
2014-Jul-18 08:33N 38°59' E 117°45'0 0.0
2014-Jul-18 07:33N 38°59' E 117°45'0 0.0
2014-Jul-18 06:34N 38°59' E 117°45'0 0.0
2014-Jul-18 05:34N 38°59' E 117°45'0 0.0
2014-Jul-18 04:33N 38°59' E 117°45'0 0.1
2014-Jul-18 03:33N 38°59' E 117°45'7 7.1
2014-Jul-18 02:34N 38°57' E 117°54'8 7.4
2014-Jul-18 01:26N 38°57' E 118°05'0 0.3
2014-Jul-18 00:32N 38°57' E 118°05'0 0.1
2014-Jul-17 23:26N 38°57' E 118°05'0 0.1
2014-Jul-17 22:32N 38°57' E 118°05'0 0.0
2014-Jul-17 21:14N 38°57' E 118°05'0 0.1
2014-Jul-17 20:26N 38°57' E 118°05'0 0.0
2014-Jul-17 19:26N 38°57' E 118°05'0 0.1
2014-Jul-17 18:29N 38°57' E 118°05'0 0.1
2014-Jul-17 16:22N 38°57' E 118°05'0 0.1
2014-Jul-17 15:31N 38°57' E 118°05'0 0.0
2014-Jul-17 14:31N 38°57' E 118°05'0 0.0
2014-Jul-17 13:28N 38°57' E 118°05'0 0.1
2014-Jul-17 12:31N 38°57' E 118°05'0 0.2
2014-Jul-17 11:28N 38°57' E 118°05'0 0.0
2014-Jul-17 10:25N 38°57' E 118°05'0 0.1
2014-Jul-17 09:31N 38°57' E 118°05'0 0.0
2014-Jul-17 08:28N 38°57' E 118°05'0 0.0
2014-Jul-17 07:28N 38°57' E 118°05'0 0.1
2014-Jul-17 06:31N 38°57' E 118°05'0 0.1
2014-Jul-17 05:31N 38°57' E 118°05'0 0.1
2014-Jul-17 02:19N 38°57' E 118°05'0 0.0
2014-Jul-16 21:10N 38°57' E 118°05'0 0.0
2014-Jul-16 19:28N 38°57' E 118°05'0 0.0
2014-Jul-16 17:28N 38°57' E 118°05'0 0.1
2014-Jul-16 16:22N 38°57' E 118°05'0 0.0
2014-Jul-16 14:22N 38°57' E 118°05'0 0.0
2014-Jul-16 13:16N 38°57' E 118°05'0 0.1
2014-Jul-16 12:22N 38°57' E 118°05'0 0.2
2014-Jul-16 11:29N 38°57' E 118°05'1 1.4
2014-Jul-16 10:33N 38°56' E 118°06'15111.4
2014-Jul-15 21:18N 38°27' E 121°16'1011.2
2014-Jul-15 20:23N 38°22' E 121°28'8911.4
2014-Jul-15 12:33N 37°30' E 123°00'1313.5
2014-Jul-15 11:33N 37°18' E 123°07'1313.1
2014-Jul-15 10:33N 37°06' E 123°14'1312.5
2014-Jul-15 09:33N 36°55' E 123°21'  

Dump ship's entire track history